Spirit Of Brazil — V7OG5 — position and weather

sailwx.info

Track history (hours):
 
Tides and Currents Weather Stations Pressure Air Temp Water Temp Dewpoint Dewpoint Depression Visibility Wind Speed Wind Dir Waves Ship Positions

Spirit Of Brazil

Last reported at 2018-May-30 19:32 UTC. Time now 2018-Jun-23 21:46 UTC.
Position N 20°23' E 068°48'.
Warning: this ship's position is 24 days out of date.

Length 224 m; draft 7 m.

Type: Cargo ship. MMSI: 538003084.

Date/timePositionNaut miles runAvg speedWind from/ knotsBaromVisibWave heightAir tempDewpointWater temp
2018-May-30 19:32N 20°23' E 068°48'161 8.3
2018-May-30 00:10N 22°48' E 070°02'16 0.6
2018-May-28 19:34N 23°00' E 070°13'0 0.0
2018-May-28 19:24N 23°00' E 070°13'0 0.0
2018-May-28 19:00N 23°00' E 070°13'0 0.0
2018-May-28 18:25N 23°00' E 070°13'0 0.0
2018-May-28 14:35N 23°00' E 070°13'0 0.0
2018-May-28 14:30N 23°00' E 070°13'0 0.0
2018-May-28 14:00N 23°00' E 070°13'0 0.0
2018-May-28 13:30N 23°00' E 070°13'0 0.0
2018-May-27 23:57N 23°00' E 070°13'0 0.0
2018-May-27 23:17N 23°00' E 070°13'0 0.0
2018-May-27 21:11N 23°00' E 070°13'0 0.0
2018-May-27 21:00N 23°00' E 070°13'0 0.0
2018-May-27 19:42N 23°00' E 070°13'0 0.0
2018-May-27 16:38N 23°00' E 070°13'0 0.0
2018-May-27 16:29N 23°00' E 070°13'0 0.0
2018-May-27 16:00N 23°00' E 070°13'0 0.0
2018-May-27 15:30N 23°00' E 070°13'0 0.0
2018-May-27 15:00N 23°00' E 070°13'0 0.0
2018-May-27 03:43N 23°00' E 070°13'0 0.0
2018-May-27 03:30N 23°00' E 070°13'0 0.0
2018-May-27 02:21N 23°00' E 070°13'0 0.0
2018-May-27 02:00N 23°00' E 070°13'0 0.0
2018-May-27 01:26N 23°00' E 070°13'0 0.0
2018-May-27 00:51N 23°00' E 070°13'0 0.0
2018-May-27 00:26N 23°00' E 070°13'0 0.0
2018-May-27 00:00N 23°00' E 070°13'0 0.0
2018-May-26 23:30N 23°00' E 070°13'0 0.0
2018-May-26 17:39N 23°00' E 070°13'0 0.0
2018-May-26 17:29N 23°00' E 070°13'0 0.0
2018-May-26 17:00N 23°00' E 070°13'0 0.0
2018-May-26 16:27N 23°00' E 070°13'0 0.0
2018-May-26 16:00N 23°00' E 070°13'0 0.0
2018-May-26 15:30N 23°00' E 070°13'0 0.0
2018-May-25 23:48N 23°00' E 070°13'0 0.0
2018-May-25 23:29N 23°00' E 070°13'3 1.2
2018-May-25 20:50N 22°57' E 070°15'411.0
2018-May-25 20:30N 22°55' E 070°12'4 8.4
2018-May-25 20:00N 22°52' E 070°08'5 9.7
2018-May-25 19:27N 22°48' E 070°04'3 5.3
2018-May-25 18:57N 22°47' E 070°02'1 1.2
2018-May-25 18:30N 22°47' E 070°01'0 0.0
2018-May-25 03:43N 22°47' E 070°01'0 0.0
2018-May-25 03:30N 22°47' E 070°01'0 0.0
2018-May-25 03:00N 22°47' E 070°01'0 0.0
2018-May-25 01:51N 22°47' E 070°01'0 0.0
2018-May-24 23:24N 22°47' E 070°01'0 0.0
2018-May-24 20:11N 22°47' E 070°01'0 0.1
2018-May-24 19:58N 22°47' E 070°01'0 0.1
2018-May-24 19:06N 22°47' E 070°01'0 0.1
2018-May-24 18:59N 22°47' E 070°01'0 0.0
2018-May-24 18:05N 22°47' E 070°01'0 0.1
2018-May-24 17:49N 22°47' E 070°01'0 0.0
2018-May-24 17:30N 22°47' E 070°01'17 0.8
2018-May-23 21:05N 22°60' E 070°13'0 0.0
2018-May-23 20:56N 22°60' E 070°13'0 0.0
2018-May-23 20:29N 22°60' E 070°13'0 0.0
2018-May-23 20:00N 22°60' E 070°13'0 0.0
2018-May-23 04:36N 22°60' E 070°13'0 0.0
2018-May-23 04:30N 22°60' E 070°13'0 0.0
2018-May-23 04:00N 22°60' E 070°13'0 0.0
2018-May-23 03:30N 22°60' E 070°13'0 0.0
2018-May-23 03:00N 22°60' E 070°13'0 0.0
2018-May-23 02:30N 22°60' E 070°13'0 0.0
2018-May-23 00:09N 22°60' E 070°13'0 0.0
2018-May-23 00:00N 22°60' E 070°13'0 0.0
2018-May-22 23:30N 22°60' E 070°13'0 0.0
2018-May-22 23:00N 22°60' E 070°13'0 0.0
2018-May-22 22:26N 22°60' E 070°13'0 0.0
2018-May-22 21:58N 22°60' E 070°13'0 0.0
2018-May-22 21:28N 22°60' E 070°13'0 0.0
2018-May-22 21:00N 22°60' E 070°13'0 0.0
2018-May-22 20:05N 22°60' E 070°13'0 0.0
2018-May-22 19:58N 22°60' E 070°13'0 0.0
2018-May-22 19:30N 22°60' E 070°13'0 0.0
2018-May-22 19:00N 22°60' E 070°13'0 0.0
2018-May-22 18:30N 22°60' E 070°13'0 0.0
2018-May-22 18:00N 22°60' E 070°13'0 0.0
2018-May-22 17:30N 22°60' E 070°13'0 0.0
2018-May-21 23:39N 22°60' E 070°13'0 0.0
2018-May-21 23:29N 22°60' E 070°13'0 0.0
2018-May-21 22:54N 22°60' E 070°13'0 0.0
2018-May-21 22:30N 22°60' E 070°13'0 0.0
2018-May-21 21:42N 22°60' E 070°13'0 0.0
2018-May-21 21:30N 22°60' E 070°13'0 0.0
2018-May-21 21:00N 22°60' E 070°13'0 0.0
2018-May-21 20:30N 22°60' E 070°13'0 0.0
2018-May-21 19:57N 22°60' E 070°13'0 0.0
2018-May-20 20:43N 22°60' E 070°13'0 0.0
2018-May-20 20:30N 22°60' E 070°13'0 0.0
2018-May-20 20:00N 22°60' E 070°13'  
Track history (hours):
 
Tides and Currents Weather Stations Pressure Air Temp Water Temp Dewpoint Dewpoint Depression Visibility Wind Speed Wind Dir Waves Ship Positions

Spirit Of Brazil

Last reported at 2018-May-30 19:32 UTC. Time now 2018-Jun-23 21:46 UTC.
Position N 20°23' E 068°48'.
Warning: this ship's position is 24 days out of date.

Length 224 m; draft 7 m.

Type: Cargo ship. MMSI: 538003084.

Date/timePositionNaut miles runAvg speedWind from/ knotsBaromVisibWave heightAir tempDewpointWater temp
2018-May-30 19:32N 20°23' E 068°48'161 8.3
2018-May-30 00:10N 22°48' E 070°02'16 0.6
2018-May-28 19:34N 23°00' E 070°13'0 0.0
2018-May-28 19:24N 23°00' E 070°13'0 0.0
2018-May-28 19:00N 23°00' E 070°13'0 0.0
2018-May-28 18:25N 23°00' E 070°13'0 0.0
2018-May-28 14:35N 23°00' E 070°13'0 0.0
2018-May-28 14:30N 23°00' E 070°13'0 0.0
2018-May-28 14:00N 23°00' E 070°13'0 0.0
2018-May-28 13:30N 23°00' E 070°13'0 0.0
2018-May-27 23:57N 23°00' E 070°13'0 0.0
2018-May-27 23:17N 23°00' E 070°13'0 0.0
2018-May-27 21:11N 23°00' E 070°13'0 0.0
2018-May-27 21:00N 23°00' E 070°13'0 0.0
2018-May-27 19:42N 23°00' E 070°13'0 0.0
2018-May-27 16:38N 23°00' E 070°13'0 0.0
2018-May-27 16:29N 23°00' E 070°13'0 0.0
2018-May-27 16:00N 23°00' E 070°13'0 0.0
2018-May-27 15:30N 23°00' E 070°13'0 0.0
2018-May-27 15:00N 23°00' E 070°13'0 0.0
2018-May-27 03:43N 23°00' E 070°13'0 0.0
2018-May-27 03:30N 23°00' E 070°13'0 0.0
2018-May-27 02:21N 23°00' E 070°13'0 0.0
2018-May-27 02:00N 23°00' E 070°13'0 0.0
2018-May-27 01:26N 23°00' E 070°13'0 0.0
2018-May-27 00:51N 23°00' E 070°13'0 0.0
2018-May-27 00:26N 23°00' E 070°13'0 0.0
2018-May-27 00:00N 23°00' E 070°13'0 0.0
2018-May-26 23:30N 23°00' E 070°13'0 0.0
2018-May-26 17:39N 23°00' E 070°13'0 0.0
2018-May-26 17:29N 23°00' E 070°13'0 0.0
2018-May-26 17:00N 23°00' E 070°13'0 0.0
2018-May-26 16:27N 23°00' E 070°13'0 0.0
2018-May-26 16:00N 23°00' E 070°13'0 0.0
2018-May-26 15:30N 23°00' E 070°13'0 0.0
2018-May-25 23:48N 23°00' E 070°13'0 0.0
2018-May-25 23:29N 23°00' E 070°13'3 1.2
2018-May-25 20:50N 22°57' E 070°15'411.0
2018-May-25 20:30N 22°55' E 070°12'4 8.4
2018-May-25 20:00N 22°52' E 070°08'5 9.7
2018-May-25 19:27N 22°48' E 070°04'3 5.3
2018-May-25 18:57N 22°47' E 070°02'1 1.2
2018-May-25 18:30N 22°47' E 070°01'0 0.0
2018-May-25 03:43N 22°47' E 070°01'0 0.0
2018-May-25 03:30N 22°47' E 070°01'0 0.0
2018-May-25 03:00N 22°47' E 070°01'0 0.0
2018-May-25 01:51N 22°47' E 070°01'0 0.0
2018-May-24 23:24N 22°47' E 070°01'0 0.0
2018-May-24 20:11N 22°47' E 070°01'0 0.1
2018-May-24 19:58N 22°47' E 070°01'0 0.1
2018-May-24 19:06N 22°47' E 070°01'0 0.1
2018-May-24 18:59N 22°47' E 070°01'0 0.0
2018-May-24 18:05N 22°47' E 070°01'0 0.1
2018-May-24 17:49N 22°47' E 070°01'0 0.0
2018-May-24 17:30N 22°47' E 070°01'17 0.8
2018-May-23 21:05N 22°60' E 070°13'0 0.0
2018-May-23 20:56N 22°60' E 070°13'0 0.0
2018-May-23 20:29N 22°60' E 070°13'0 0.0
2018-May-23 20:00N 22°60' E 070°13'0 0.0
2018-May-23 04:36N 22°60' E 070°13'0 0.0
2018-May-23 04:30N 22°60' E 070°13'0 0.0
2018-May-23 04:00N 22°60' E 070°13'0 0.0
2018-May-23 03:30N 22°60' E 070°13'0 0.0
2018-May-23 03:00N 22°60' E 070°13'0 0.0
2018-May-23 02:30N 22°60' E 070°13'0 0.0
2018-May-23 00:09N 22°60' E 070°13'0 0.0
2018-May-23 00:00N 22°60' E 070°13'0 0.0
2018-May-22 23:30N 22°60' E 070°13'0 0.0
2018-May-22 23:00N 22°60' E 070°13'0 0.0
2018-May-22 22:26N 22°60' E 070°13'0 0.0
2018-May-22 21:58N 22°60' E 070°13'0 0.0
2018-May-22 21:28N 22°60' E 070°13'0 0.0
2018-May-22 21:00N 22°60' E 070°13'0 0.0
2018-May-22 20:05N 22°60' E 070°13'0 0.0
2018-May-22 19:58N 22°60' E 070°13'0 0.0
2018-May-22 19:30N 22°60' E 070°13'0 0.0
2018-May-22 19:00N 22°60' E 070°13'0 0.0
2018-May-22 18:30N 22°60' E 070°13'0 0.0
2018-May-22 18:00N 22°60' E 070°13'0 0.0
2018-May-22 17:30N 22°60' E 070°13'0 0.0
2018-May-21 23:39N 22°60' E 070°13'0 0.0
2018-May-21 23:29N 22°60' E 070°13'0 0.0
2018-May-21 22:54N 22°60' E 070°13'0 0.0
2018-May-21 22:30N 22°60' E 070°13'0 0.0
2018-May-21 21:42N 22°60' E 070°13'0 0.0
2018-May-21 21:30N 22°60' E 070°13'0 0.0
2018-May-21 21:00N 22°60' E 070°13'0 0.0
2018-May-21 20:30N 22°60' E 070°13'0 0.0
2018-May-21 19:57N 22°60' E 070°13'0 0.0
2018-May-20 20:43N 22°60' E 070°13'0 0.0
2018-May-20 20:30N 22°60' E 070°13'0 0.0
2018-May-20 20:00N 22°60' E 070°13'  

Dump ship's entire track history